Al Hulwah, Saudi Arabia
Current Conditions -  °F | °C
As of 9:00 AM on Monday 26 Jan 2015 (Local Time) from OEKJ Reporting Station
Clear Clear  
Wind Chill: 61°   Ceiling: Unl
Heat Index: 61°   Visibility: 6mi
Dew Point: 19°   Wind: 6mph
Humidity: 20%   Direction: 200°SSW
Pressure: 30.33"   Gusts: NA
Location:  23.45°N, 46.78°E
Report Text: OEKJ 260600Z 20005KT CAVOK 16/M07 Q1027
Loading
Personal Weather Stations






























Interactive Weather Map New forecast layout! Learn more

10-Day Weather Forecast

Advertisements
Track Severe Weather on mobile